sensor_id;sensor_type;location;lat;lon;timestamp;pressure;altitude;pressure_sealevel;temperature;humidity
57074;BME280;69035;54.392;18.574;2023-04-20T00:00:04;102128.28;;;9.92;68.77
57074;BME280;69035;54.392;18.574;2023-04-20T00:03:00;102128.31;;;9.93;68.26
57074;BME280;69035;54.392;18.574;2023-04-20T00:05:31;102131.81;;;9.94;69.96
57074;BME280;69035;54.392;18.574;2023-04-20T00:08:00;102121.31;;;9.94;68.76
57074;BME280;69035;54.392;18.574;2023-04-20T00:10:31;102122.16;;;9.93;69.27
57074;BME280;69035;54.392;18.574;2023-04-20T00:13:00;102123.03;;;9.92;68.87
57074;BME280;69035;54.392;18.574;2023-04-20T00:15:29;102121.31;;;9.94;69.58
57074;BME280;69035;54.392;18.574;2023-04-20T00:17:58;102121.25;;;9.91;68.74
57074;BME280;69035;54.392;18.574;2023-04-20T00:20:26;102122.06;;;9.87;68.43
57074;BME280;69035;54.392;18.574;2023-04-20T00:22:57;102114.13;;;9.82;69.43
57074;BME280;69035;54.392;18.574;2023-04-20T00:25:26;102107.06;;;9.76;69.63
57074;BME280;69035;54.392;18.574;2023-04-20T00:27:56;102116.81;;;9.87;69.81
57074;BME280;69035;54.392;18.574;2023-04-20T00:30:24;102112.38;;;9.83;68.41
57074;BME280;69035;54.392;18.574;2023-04-20T00:32:53;102116.81;;;9.87;68.18
57074;BME280;69035;54.392;18.574;2023-04-20T00:35:22;102120.38;;;9.90;68.27
57074;BME280;69035;54.392;18.574;2023-04-20T00:37:51;102100.19;;;9.86;68.72
57074;BME280;69035;54.392;18.574;2023-04-20T00:40:21;102109.00;;;9.91;68.39
57074;BME280;69035;54.392;18.574;2023-04-20T00:42:50;102107.25;;;9.89;69.20
57074;BME280;69035;54.392;18.574;2023-04-20T00:45:18;102104.66;;;9.92;68.58
57074;BME280;69035;54.392;18.574;2023-04-20T00:47:48;102106.25;;;9.82;69.41
57074;BME280;69035;54.392;18.574;2023-04-20T00:50:17;102110.69;;;9.86;69.11
57074;BME280;69035;54.392;18.574;2023-04-20T00:52:46;102108.09;;;9.88;69.52
57074;BME280;69035;54.392;18.574;2023-04-20T00:55:16;102109.84;;;9.87;68.85
57074;BME280;69035;54.392;18.574;2023-04-20T00:57:47;102116.81;;;9.85;67.86
57074;BME280;69035;54.392;18.574;2023-04-20T01:00:16;102107.97;;;9.79;69.61
57074;BME280;69035;54.392;18.574;2023-04-20T01:02:48;102109.66;;;9.75;67.59
57074;BME280;69035;54.392;18.574;2023-04-20T01:05:16;102110.47;;;9.71;67.78
57074;BME280;69035;54.392;18.574;2023-04-20T01:07:46;102109.53;;;9.64;68.25
57074;BME280;69035;54.392;18.574;2023-04-20T01:10:14;102114.75;;;9.63;67.95
57074;BME280;69035;54.392;18.574;2023-04-20T01:12:43;102120.81;;;9.60;67.92
57074;BME280;69035;54.392;18.574;2023-04-20T01:15:13;102115.56;;;9.58;68.15
57074;BME280;69035;54.392;18.574;2023-04-20T01:17:42;102108.50;;;9.54;67.93
57074;BME280;69035;54.392;18.574;2023-04-20T01:20:11;102115.41;;;9.51;67.63
57074;BME280;69035;54.392;18.574;2023-04-20T01:22:47;102111.81;;;9.42;67.92
57074;BME280;69035;54.392;18.574;2023-04-20T01:25:16;102113.53;;;9.42;68.61
57074;BME280;69035;54.392;18.574;2023-04-20T01:27:46;102112.59;;;9.37;67.52
57074;BME280;69035;54.392;18.574;2023-04-20T01:30:15;102100.22;;;9.28;68.39
57074;BME280;69035;54.392;18.574;2023-04-20T01:32:44;102116.00;;;9.31;67.32
57074;BME280;69035;54.392;18.574;2023-04-20T01:35:13;102111.66;;;9.33;67.24
57074;BME280;69035;54.392;18.574;2023-04-20T01:37:45;102116.84;;;9.30;68.20
57074;BME280;69035;54.392;18.574;2023-04-20T01:40:14;102109.84;;;9.28;68.12
57074;BME280;69035;54.392;18.574;2023-04-20T01:42:44;102112.41;;;9.26;67.38
57074;BME280;69035;54.392;18.574;2023-04-20T01:45:13;102110.59;;;9.20;67.58
57074;BME280;69035;54.392;18.574;2023-04-20T01:47:43;102107.88;;;9.17;67.87
57074;BME280;69035;54.392;18.574;2023-04-20T01:50:11;102109.63;;;9.15;67.26
57074;BME280;69035;54.392;18.574;2023-04-20T01:52:40;102110.41;;;9.10;67.64
57074;BME280;69035;54.392;18.574;2023-04-20T01:55:11;102110.28;;;9.02;67.12
57074;BME280;69035;54.392;18.574;2023-04-20T01:57:40;102110.22;;;8.99;67.30
57074;BME280;69035;54.392;18.574;2023-04-20T02:00:11;102112.78;;;8.94;68.09
57074;BME280;69035;54.392;18.574;2023-04-20T02:02:40;102109.16;;;8.87;68.15
57074;BME280;69035;54.392;18.574;2023-04-20T02:05:09;102092.34;;;8.78;68.17
57074;BME280;69035;54.392;18.574;2023-04-20T02:07:38;102118.66;;;8.82;68.61
57074;BME280;69035;54.392;18.574;2023-04-20T02:10:07;102120.41;;;8.82;67.68
57074;BME280;69035;54.392;18.574;2023-04-20T02:12:38;102116.72;;;8.72;69.50
57074;BME280;69035;54.392;18.574;2023-04-20T02:15:07;102119.44;;;8.77;69.67
57074;BME280;69035;54.392;18.574;2023-04-20T02:17:36;102123.78;;;8.76;68.95
57074;BME280;69035;54.392;18.574;2023-04-20T02:20:08;102113.16;;;8.68;69.00
57074;BME280;69035;54.392;18.574;2023-04-20T02:22:38;102125.50;;;8.72;68.80
57074;BME280;69035;54.392;18.574;2023-04-20T02:25:08;102127.19;;;8.70;68.28
57074;BME280;69035;54.392;18.574;2023-04-20T02:27:38;102127.19;;;8.72;69.09
57074;BME280;69035;54.392;18.574;2023-04-20T02:30:07;102121.94;;;8.70;68.83
57074;BME280;69035;54.392;18.574;2023-04-20T02:32:36;102127.09;;;8.66;69.30
57074;BME280;69035;54.392;18.574;2023-04-20T02:35:05;102122.81;;;8.69;68.84
57074;BME280;69035;54.392;18.574;2023-04-20T02:37:35;102121.88;;;8.67;68.60
57074;BME280;69035;54.392;18.574;2023-04-20T02:40:04;102124.50;;;8.67;69.31
57074;BME280;69035;54.392;18.574;2023-04-20T02:42:35;102124.41;;;8.63;69.13
57074;BME280;69035;54.392;18.574;2023-04-20T02:45:09;102120.94;;;8.62;69.32
57074;BME280;69035;54.392;18.574;2023-04-20T02:47:41;102119.88;;;8.54;69.53
57074;BME280;69035;54.392;18.574;2023-04-20T02:50:11;102119.84;;;8.51;69.79
57074;BME280;69035;54.392;18.574;2023-04-20T02:53:05;102118.03;;;8.48;69.33
57074;BME280;69035;54.392;18.574;2023-04-20T02:55:35;102125.94;;;8.51;69.07
57074;BME280;69035;54.392;18.574;2023-04-20T02:58:16;102127.69;;;8.51;69.36
57074;BME280;69035;54.392;18.574;2023-04-20T03:01:09;102123.25;;;8.48;69.44
57074;BME280;69035;54.392;18.574;2023-04-20T03:03:38;102129.38;;;8.49;69.90
57074;BME280;69035;54.392;18.574;2023-04-20T03:06:10;102123.16;;;8.44;69.36
57074;BME280;69035;54.392;18.574;2023-04-20T03:08:43;102125.75;;;8.42;70.13
57074;BME280;69035;54.392;18.574;2023-04-20T03:11:48;102122.06;;;8.34;70.65
57074;BME280;69035;54.392;18.574;2023-04-20T03:14:31;102130.69;;;8.28;70.13
57074;BME280;69035;54.392;18.574;2023-04-20T03:17:02;102133.31;;;8.28;70.05
57074;BME280;69035;54.392;18.574;2023-04-20T03:19:31;102128.97;;;8.29;70.67
57074;BME280;69035;54.392;18.574;2023-04-20T03:22:00;102129.81;;;8.28;69.92
57074;BME280;69035;54.392;18.574;2023-04-20T03:24:31;102130.66;;;8.27;69.93
57074;BME280;69035;54.392;18.574;2023-04-20T03:27:03;102138.47;;;8.25;70.21
57074;BME280;69035;54.392;18.574;2023-04-20T03:29:41;102135.00;;;8.25;70.03
57074;BME280;69035;54.392;18.574;2023-04-20T03:32:11;102135.81;;;8.22;69.87
57074;BME280;69035;54.392;18.574;2023-04-20T03:34:40;102137.56;;;8.22;70.25
57074;BME280;69035;54.392;18.574;2023-04-20T03:37:09;102143.69;;;8.24;70.25
57074;BME280;69035;54.392;18.574;2023-04-20T03:39:37;102146.28;;;8.22;70.41
57074;BME280;69035;54.392;18.574;2023-04-20T03:42:06;102139.25;;;8.21;70.35
57074;BME280;69035;54.392;18.574;2023-04-20T03:44:35;102130.50;;;8.19;70.16
57074;BME280;69035;54.392;18.574;2023-04-20T03:47:04;102148.81;;;8.17;69.90
57074;BME280;69035;54.392;18.574;2023-04-20T03:49:35;102141.00;;;8.20;70.06
57074;BME280;69035;54.392;18.574;2023-04-20T03:52:03;102141.72;;;8.13;70.13
57074;BME280;69035;54.392;18.574;2023-04-20T03:54:33;102139.19;;;8.18;69.45
57074;BME280;69035;54.392;18.574;2023-04-20T03:57:02;102141.94;;;8.24;70.00
57074;BME280;69035;54.392;18.574;2023-04-20T03:59:31;102150.69;;;8.23;69.55
57074;BME280;69035;54.392;18.574;2023-04-20T04:02:02;102141.13;;;8.27;70.30
57074;BME280;69035;54.392;18.574;2023-04-20T04:04:32;102146.44;;;8.30;69.63
57074;BME280;69035;54.392;18.574;2023-04-20T04:07:02;102149.09;;;8.31;69.61
57074;BME280;69035;54.392;18.574;2023-04-20T04:09:31;102150.03;;;8.35;69.26
57074;BME280;69035;54.392;18.574;2023-04-20T04:12:00;102148.38;;;8.40;68.55
57074;BME280;69035;54.392;18.574;2023-04-20T04:14:31;102150.13;;;8.40;69.65
57074;BME280;69035;54.392;18.574;2023-04-20T04:17:00;102152.88;;;8.44;68.96
57074;BME280;69035;54.392;18.574;2023-04-20T04:19:31;102156.44;;;8.46;69.67
57074;BME280;69035;54.392;18.574;2023-04-20T04:22:03;102157.44;;;8.54;68.77
57074;BME280;69035;54.392;18.574;2023-04-20T04:24:36;102149.69;;;8.59;68.84
57074;BME280;69035;54.392;18.574;2023-04-20T04:27:08;102160.28;;;8.64;68.74
57074;BME280;69035;54.392;18.574;2023-04-20T04:29:49;102158.59;;;8.69;68.53
57074;BME280;69035;54.392;18.574;2023-04-20T04:32:19;102156.91;;;8.71;68.39
57074;BME280;69035;54.392;18.574;2023-04-20T04:34:48;102162.19;;;8.72;68.76
57074;BME280;69035;54.392;18.574;2023-04-20T04:37:18;102165.72;;;8.76;68.26
57074;BME280;69035;54.392;18.574;2023-04-20T04:39:51;102163.25;;;8.84;68.26
57074;BME280;69035;54.392;18.574;2023-04-20T04:42:26;102165.06;;;8.88;67.87
57074;BME280;69035;54.392;18.574;2023-04-20T04:44:56;102167.72;;;8.89;67.80
57074;BME280;69035;54.392;18.574;2023-04-20T04:47:33;102174.81;;;8.95;67.69
57074;BME280;69035;54.392;18.574;2023-04-20T04:50:03;102178.38;;;8.97;67.03
57074;BME280;69035;54.392;18.574;2023-04-20T04:52:35;102177.63;;;9.04;68.32
57074;BME280;69035;54.392;18.574;2023-04-20T04:55:05;102170.78;;;9.13;67.88
57074;BME280;69035;54.392;18.574;2023-04-20T04:57:35;102181.34;;;9.17;66.82
57074;BME280;69035;54.392;18.574;2023-04-20T05:00:06;102175.34;;;9.24;66.84
57074;BME280;69035;54.392;18.574;2023-04-20T05:02:38;102164.06;;;9.29;66.28
57074;BME280;69035;54.392;18.574;2023-04-20T05:05:07;102172.94;;;9.37;66.56
57074;BME280;69035;54.392;18.574;2023-04-20T05:07:37;102176.59;;;9.45;66.31
57074;BME280;69035;54.392;18.574;2023-04-20T05:10:07;102168.78;;;9.50;66.01
57074;BME280;69035;54.392;18.574;2023-04-20T05:12:36;102169.69;;;9.52;67.11
57074;BME280;69035;54.392;18.574;2023-04-20T05:15:06;102153.94;;;9.52;66.24
57074;BME280;69035;54.392;18.574;2023-04-20T05:17:35;102179.63;;;9.71;66.57
57074;BME280;69035;54.392;18.574;2023-04-20T05:20:05;102171.84;;;9.77;66.07
57074;BME280;69035;54.392;18.574;2023-04-20T05:22:38;102180.78;;;9.90;65.83
57074;BME280;69035;54.392;18.574;2023-04-20T05:25:07;102187.91;;;9.98;65.02
57074;BME280;69035;54.392;18.574;2023-04-20T05:27:39;102172.19;;;10.01;65.17
57074;BME280;69035;54.392;18.574;2023-04-20T05:30:09;102174.94;;;10.10;64.95
57074;BME280;69035;54.392;18.574;2023-04-20T05:32:46;102182.06;;;10.20;64.26
57074;BME280;69035;54.392;18.574;2023-04-20T05:35:18;102180.47;;;10.32;64.73
57074;BME280;69035;54.392;18.574;2023-04-20T05:37:49;102185.84;;;10.38;64.20
57074;BME280;69035;54.392;18.574;2023-04-20T05:40:18;102184.22;;;10.48;64.15
57074;BME280;69035;54.392;18.574;2023-04-20T05:42:46;102185.22;;;10.57;64.06
57074;BME280;69035;54.392;18.574;2023-04-20T05:45:15;102185.31;;;10.68;63.70
57074;BME280;69035;54.392;18.574;2023-04-20T05:47:51;102180.06;;;10.67;62.86
57074;BME280;69035;54.392;18.574;2023-04-20T05:50:20;102186.31;;;10.76;63.06
57074;BME280;69035;54.392;18.574;2023-04-20T05:52:51;102190.81;;;10.88;62.91
57074;BME280;69035;54.392;18.574;2023-04-20T05:55:20;102191.72;;;10.93;62.02
57074;BME280;69035;54.392;18.574;2023-04-20T05:57:52;102190.91;;;10.99;61.70
57074;BME280;69035;54.392;18.574;2023-04-20T06:00:21;102191.84;;;11.01;61.80
57074;BME280;69035;54.392;18.574;2023-04-20T06:02:52;102198.91;;;11.07;62.34
57074;BME280;69035;54.392;18.574;2023-04-20T06:05:22;102205.06;;;11.09;61.55
57074;BME280;69035;54.392;18.574;2023-04-20T06:07:52;102204.25;;;11.16;61.96
57074;BME280;69035;54.392;18.574;2023-04-20T06:10:22;102198.97;;;11.14;61.43
57074;BME280;69035;54.392;18.574;2023-04-20T06:12:51;102206.84;;;11.10;61.11
57074;BME280;69035;54.392;18.574;2023-04-20T06:15:20;102212.94;;;11.07;61.13
57074;BME280;69035;54.392;18.574;2023-04-20T06:17:49;102206.84;;;11.10;61.24
57074;BME280;69035;54.392;18.574;2023-04-20T06:20:18;102215.66;;;11.18;60.57
57074;BME280;69035;54.392;18.574;2023-04-20T06:22:47;102213.16;;;11.29;61.03
57074;BME280;69035;54.392;18.574;2023-04-20T06:25:17;102215.88;;;11.40;60.68
57074;BME280;69035;54.392;18.574;2023-04-20T06:27:46;102217.72;;;11.51;60.41
57074;BME280;69035;54.392;18.574;2023-04-20T06:30:18;102221.31;;;11.58;60.07
57074;BME280;69035;54.392;18.574;2023-04-20T06:32:47;102214.25;;;11.54;59.49
57074;BME280;69035;54.392;18.574;2023-04-20T06:35:16;102219.66;;;11.73;60.01
57074;BME280;69035;54.392;18.574;2023-04-20T06:37:44;102220.56;;;11.75;58.15
57074;BME280;69035;54.392;18.574;2023-04-20T06:40:13;102222.25;;;11.66;59.12
57074;BME280;69035;54.392;18.574;2023-04-20T06:42:44;102230.19;;;11.68;59.53
57074;BME280;69035;54.392;18.574;2023-04-20T06:45:12;102217.97;;;11.81;59.77
57074;BME280;69035;54.392;18.574;2023-04-20T06:47:41;102225.13;;;11.94;59.06
57074;BME280;69035;54.392;18.574;2023-04-20T06:50:10;102224.13;;;11.81;58.03
57074;BME280;69035;54.392;18.574;2023-04-20T06:52:39;102230.28;;;11.85;58.77
57074;BME280;69035;54.392;18.574;2023-04-20T06:55:08;102232.00;;;11.77;57.77
57074;BME280;69035;54.392;18.574;2023-04-20T06:57:37;102235.56;;;11.88;58.76
57074;BME280;69035;54.392;18.574;2023-04-20T07:00:10;102235.59;;;11.90;58.28
57074;BME280;69035;54.392;18.574;2023-04-20T07:02:44;102237.41;;;11.94;58.41
57074;BME280;69035;54.392;18.574;2023-04-20T07:05:13;102233.06;;;11.97;58.52
57074;BME280;69035;54.392;18.574;2023-04-20T07:07:44;102233.97;;;12.04;57.75
57074;BME280;69035;54.392;18.574;2023-04-20T07:10:14;102243.72;;;12.16;57.71
57074;BME280;69035;54.392;18.574;2023-04-20T07:12:43;102243.63;;;12.05;57.60
57074;BME280;69035;54.392;18.574;2023-04-20T07:15:13;102246.38;;;12.19;57.73
57074;BME280;69035;54.392;18.574;2023-04-20T07:17:42;102249.06;;;12.27;57.61
57074;BME280;69035;54.392;18.574;2023-04-20T07:20:11;102249.88;;;12.15;56.77
57074;BME280;69035;54.392;18.574;2023-04-20T07:22:40;102257.78;;;12.16;57.34
57074;BME280;69035;54.392;18.574;2023-04-20T07:25:09;102259.56;;;12.17;57.52
57074;BME280;69035;54.392;18.574;2023-04-20T07:27:39;102256.09;;;12.29;57.01
57074;BME280;69035;54.392;18.574;2023-04-20T07:30:09;102261.41;;;12.34;56.56
57074;BME280;69035;54.392;18.574;2023-04-20T07:32:39;102253.53;;;12.42;56.92
57074;BME280;69035;54.392;18.574;2023-04-20T07:35:09;102257.94;;;12.44;56.20
57074;BME280;69035;54.392;18.574;2023-04-20T07:37:38;102250.03;;;12.44;56.49
57074;BME280;69035;54.392;18.574;2023-04-20T07:40:08;102247.38;;;12.40;56.40
57074;BME280;69035;54.392;18.574;2023-04-20T07:42:37;102257.94;;;12.47;56.69
57074;BME280;69035;54.392;18.574;2023-04-20T07:45:07;102250.03;;;12.47;55.85
57074;BME280;69035;54.392;18.574;2023-04-20T07:47:36;102260.66;;;12.61;56.02
57074;BME280;69035;54.392;18.574;2023-04-20T07:50:07;102261.56;;;12.71;56.29
57074;BME280;69035;54.392;18.574;2023-04-20T07:52:35;102262.47;;;12.68;55.76
57074;BME280;69035;54.392;18.574;2023-04-20T07:55:05;102265.97;;;12.73;55.90
57074;BME280;69035;54.392;18.574;2023-04-20T07:57:37;102265.13;;;12.78;55.56
57074;BME280;69035;54.392;18.574;2023-04-20T08:00:07;102258.81;;;12.48;55.37
57074;BME280;69035;54.392;18.574;2023-04-20T08:02:39;102270.25;;;12.42;55.64
57074;BME280;69035;54.392;18.574;2023-04-20T08:05:10;102271.06;;;12.33;56.16
57074;BME280;69035;54.392;18.574;2023-04-20T08:07:39;102271.94;;;12.31;56.28
57074;BME280;69035;54.392;18.574;2023-04-20T08:10:11;102271.13;;;12.46;56.07
57074;BME280;69035;54.392;18.574;2023-04-20T08:12:41;102271.13;;;12.44;55.88
57074;BME280;69035;54.392;18.574;2023-04-20T08:15:13;102271.13;;;12.44;56.08
57074;BME280;69035;54.392;18.574;2023-04-20T08:17:43;102262.38;;;12.50;55.66
57074;BME280;69035;54.392;18.574;2023-04-20T08:20:13;102267.56;;;12.41;55.44
57074;BME280;69035;54.392;18.574;2023-04-20T08:22:42;102276.38;;;12.41;55.49
57074;BME280;69035;54.392;18.574;2023-04-20T08:25:10;102269.31;;;12.38;55.30
57074;BME280;69035;54.392;18.574;2023-04-20T08:27:39;102264.09;;;12.48;55.17
57074;BME280;69035;54.392;18.574;2023-04-20T08:30:09;102267.66;;;12.56;55.15
57074;BME280;69035;54.392;18.574;2023-04-20T08:32:38;102263.25;;;12.52;55.31
57074;BME280;69035;54.392;18.574;2023-04-20T08:35:08;102266.84;;;12.68;55.23
57074;BME280;69035;54.392;18.574;2023-04-20T08:37:38;102273.06;;;12.90;54.77
57074;BME280;69035;54.392;18.574;2023-04-20T08:40:08;102271.38;;;13.07;54.75
57074;BME280;69035;54.392;18.574;2023-04-20T08:42:37;102274.00;;;13.09;53.67
57074;BME280;69035;54.392;18.574;2023-04-20T08:45:07;102272.28;;;13.19;54.48
57074;BME280;69035;54.392;18.574;2023-04-20T08:47:35;102273.22;;;13.30;53.97
57074;BME280;69035;54.392;18.574;2023-04-20T08:50:06;102284.72;;;13.45;54.19
57074;BME280;69035;54.392;18.574;2023-04-20T08:52:35;102275.00;;;13.39;53.78
57074;BME280;69035;54.392;18.574;2023-04-20T08:55:07;102280.28;;;13.36;53.66
57074;BME280;69035;54.392;18.574;2023-04-20T08:57:36;102277.56;;;13.20;52.97
57074;BME280;69035;54.392;18.574;2023-04-20T09:00:06;102270.56;;;13.18;54.07
57074;BME280;69035;54.392;18.574;2023-04-20T09:02:49;102286.44;;;13.35;53.36
57074;BME280;69035;54.392;18.574;2023-04-20T09:05:26;102284.72;;;13.45;52.98
57074;BME280;69035;54.392;18.574;2023-04-20T09:07:57;102287.34;;;13.54;52.81
57074;BME280;69035;54.392;18.574;2023-04-20T09:10:39;102281.16;;;13.42;52.09
57074;BME280;69035;54.392;18.574;2023-04-20T09:13:08;102282.94;;;13.51;53.29
57074;BME280;69035;54.392;18.574;2023-04-20T09:15:37;102284.72;;;13.74;52.93
57074;BME280;69035;54.392;18.574;2023-04-20T09:18:13;102276.81;;;13.92;51.74
57074;BME280;69035;54.392;18.574;2023-04-20T09:20:42;102287.41;;;13.86;51.30
57074;BME280;69035;54.392;18.574;2023-04-20T09:23:11;102282.09;;;13.65;52.11
57074;BME280;69035;54.392;18.574;2023-04-20T09:25:43;102280.31;;;13.68;52.56
57074;BME280;69035;54.392;18.574;2023-04-20T09:28:12;102287.34;;;13.57;52.38
57074;BME280;69035;54.392;18.574;2023-04-20T09:30:43;102282.06;;;13.46;52.00
57074;BME280;69035;54.392;18.574;2023-04-20T09:33:12;102293.53;;;13.60;52.29
57074;BME280;69035;54.392;18.574;2023-04-20T09:35:41;102290.91;;;13.59;51.59
57074;BME280;69035;54.392;18.574;2023-04-20T09:38:14;102291.75;;;13.67;52.98
57074;BME280;69035;54.392;18.574;2023-04-20T09:40:44;102288.22;;;13.48;52.43
57074;BME280;69035;54.392;18.574;2023-04-20T09:43:17;102291.72;;;13.36;53.09
57074;BME280;69035;54.392;18.574;2023-04-20T09:45:46;102296.13;;;13.39;52.82
57074;BME280;69035;54.392;18.574;2023-04-20T09:48:17;102290.84;;;13.40;52.46
57074;BME280;69035;54.392;18.574;2023-04-20T09:50:47;102293.50;;;13.37;52.46
57074;BME280;69035;54.392;18.574;2023-04-20T09:53:18;102290.88;;;13.51;52.86
57074;BME280;69035;54.392;18.574;2023-04-20T09:55:50;102299.69;;;13.67;52.44
57074;BME280;69035;54.392;18.574;2023-04-20T09:58:19;102304.13;;;13.93;52.89
57074;BME280;69035;54.392;18.574;2023-04-20T10:00:48;102299.66;;;14.20;52.02
57074;BME280;69035;54.392;18.574;2023-04-20T10:03:17;102299.66;;;14.49;51.28
57074;BME280;69035;54.392;18.574;2023-04-20T10:05:48;102293.47;;;14.45;50.63
57074;BME280;69035;54.392;18.574;2023-04-20T10:08:21;102297.00;;;14.40;51.34
57074;BME280;69035;54.392;18.574;2023-04-20T10:10:53;102293.50;;;14.27;51.08
57074;BME280;69035;54.392;18.574;2023-04-20T10:13:31;102284.69;;;14.28;51.29
57074;BME280;69035;54.392;18.574;2023-04-20T10:16:01;102290.81;;;14.45;51.40
57074;BME280;69035;54.392;18.574;2023-04-20T10:18:31;102291.72;;;14.49;50.12
57074;BME280;69035;54.392;18.574;2023-04-20T10:21:05;102290.84;;;14.24;50.56
57074;BME280;69035;54.392;18.574;2023-04-20T10:23:46;102285.56;;;14.32;51.18
57074;BME280;69035;54.392;18.574;2023-04-20T10:26:17;102289.94;;;14.45;50.84
57074;BME280;69035;54.392;18.574;2023-04-20T10:28:45;102282.88;;;14.64;50.82
57074;BME280;69035;54.392;18.574;2023-04-20T10:31:14;102280.19;;;14.79;50.58
57074;BME280;69035;54.392;18.574;2023-04-20T10:33:50;102281.06;;;14.78;49.31
57074;BME280;69035;54.392;18.574;2023-04-20T10:36:25;102280.19;;;14.70;49.68
57074;BME280;69035;54.392;18.574;2023-04-20T10:38:54;102271.41;;;14.65;50.57
57074;BME280;69035;54.392;18.574;2023-04-20T10:41:25;102272.22;;;14.81;50.54
57074;BME280;69035;54.392;18.574;2023-04-20T10:43:54;102277.41;;;14.98;50.21
57074;BME280;69035;54.392;18.574;2023-04-20T10:46:23;102265.94;;;15.01;50.05
57074;BME280;69035;54.392;18.574;2023-04-20T10:48:55;102266.88;;;14.93;50.29
57074;BME280;69035;54.392;18.574;2023-04-20T10:51:24;102266.91;;;14.84;50.41
57074;BME280;69035;54.392;18.574;2023-04-20T10:53:59;102261.66;;;14.81;49.25
57074;BME280;69035;54.392;18.574;2023-04-20T10:56:43;102265.16;;;14.81;49.26
57074;BME280;69035;54.392;18.574;2023-04-20T10:59:14;102261.53;;;14.96;49.77
57074;BME280;69035;54.392;18.574;2023-04-20T11:01:44;102261.59;;;14.87;49.54
57074;BME280;69035;54.392;18.574;2023-04-20T11:04:14;102250.97;;;14.95;49.65
57074;BME280;69035;54.392;18.574;2023-04-20T11:06:46;102259.66;;;15.17;49.14
57074;BME280;69035;54.392;18.574;2023-04-20T11:09:16;102259.56;;;15.32;48.97
57074;BME280;69035;54.392;18.574;2023-04-20T11:11:58;102257.78;;;15.34;47.63
57074;BME280;69035;54.392;18.574;2023-04-20T11:14:28;102265.81;;;15.25;48.75
57074;BME280;69035;54.392;18.574;2023-04-20T11:16:57;102261.53;;;14.99;48.57
57074;BME280;69035;54.392;18.574;2023-04-20T11:19:27;102247.41;;;15.02;49.32
57074;BME280;69035;54.392;18.574;2023-04-20T11:21:56;102265.81;;;15.24;48.68
57074;BME280;69035;54.392;18.574;2023-04-20T11:24:26;102259.63;;;15.25;48.27
57074;BME280;69035;54.392;18.574;2023-04-20T11:26:55;102257.00;;;15.20;48.55
57074;BME280;69035;54.392;18.574;2023-04-20T11:29:31;102258.72;;;15.27;48.03
57074;BME280;69035;54.392;18.574;2023-04-20T11:32:02;102263.13;;;15.30;48.43
57074;BME280;69035;54.392;18.574;2023-04-20T11:34:33;102264.94;;;15.19;48.43
57074;BME280;69035;54.392;18.574;2023-04-20T11:37:05;102268.44;;;15.25;48.86
57074;BME280;69035;54.392;18.574;2023-04-20T11:39:34;102269.31;;;15.26;48.78
57074;BME280;69035;54.392;18.574;2023-04-20T11:42:04;102267.56;;;15.22;48.13
57074;BME280;69035;54.392;18.574;2023-04-20T11:44:34;102266.78;;;15.10;48.41
57074;BME280;69035;54.392;18.574;2023-04-20T11:47:03;102269.34;;;15.21;48.76
57074;BME280;69035;54.392;18.574;2023-04-20T11:49:32;102264.03;;;15.26;47.61
57074;BME280;69035;54.392;18.574;2023-04-20T11:52:01;102260.56;;;15.18;48.01
57074;BME280;69035;54.392;18.574;2023-04-20T11:54:30;102260.53;;;15.22;48.60
57074;BME280;69035;54.392;18.574;2023-04-20T11:57:01;102264.00;;;15.27;47.95
57074;BME280;69035;54.392;18.574;2023-04-20T11:59:30;102261.38;;;15.24;48.68
57074;BME280;69035;54.392;18.574;2023-04-20T12:02:00;102256.13;;;15.20;48.02
57074;BME280;69035;54.392;18.574;2023-04-20T12:04:30;102263.06;;;15.38;48.55
57074;BME280;69035;54.392;18.574;2023-04-20T12:07:00;102262.13;;;15.46;47.92
57074;BME280;69035;54.392;18.574;2023-04-20T12:09:29;102270.16;;;15.34;48.18
57074;BME280;69035;54.392;18.574;2023-04-20T12:12:03;102262.28;;;15.22;48.07
57074;BME280;69035;54.392;18.574;2023-04-20T12:14:31;102274.63;;;15.23;48.14
57074;BME280;69035;54.392;18.574;2023-04-20T12:17:03;102267.47;;;15.40;48.62
57074;BME280;69035;54.392;18.574;2023-04-20T12:19:31;102266.47;;;15.58;48.54
57074;BME280;69035;54.392;18.574;2023-04-20T12:22:00;102264.56;;;15.80;47.42
57074;BME280;69035;54.392;18.574;2023-04-20T12:24:29;102264.63;;;15.66;46.97
57074;BME280;69035;54.392;18.574;2023-04-20T12:26:58;102269.88;;;15.71;47.81
57074;BME280;69035;54.392;18.574;2023-04-20T12:29:26;102266.31;;;15.78;47.46
57074;BME280;69035;54.392;18.574;2023-04-20T12:31:57;102266.25;;;15.89;46.70
57074;BME280;69035;54.392;18.574;2023-04-20T12:34:27;102259.25;;;15.79;46.60
57074;BME280;69035;54.392;18.574;2023-04-20T12:36:57;102259.13;;;15.93;46.91
57074;BME280;69035;54.392;18.574;2023-04-20T12:39:25;102255.38;;;16.15;46.12
57074;BME280;69035;54.392;18.574;2023-04-20T12:41:54;102254.44;;;16.23;45.95
57074;BME280;69035;54.392;18.574;2023-04-20T12:44:24;102250.69;;;16.39;45.73
57074;BME280;69035;54.392;18.574;2023-04-20T12:46:53;102248.91;;;16.39;45.49
57074;BME280;69035;54.392;18.574;2023-04-20T12:49:21;102247.38;;;16.18;44.98
57074;BME280;69035;54.392;18.574;2023-04-20T12:51:52;102248.22;;;16.25;45.22
57074;BME280;69035;54.392;18.574;2023-04-20T12:54:21;102247.44;;;16.15;45.43
57074;BME280;69035;54.392;18.574;2023-04-20T12:56:50;102241.94;;;16.31;45.73
57074;BME280;69035;54.392;18.574;2023-04-20T12:59:18;102240.88;;;16.47;45.16
57074;BME280;69035;54.392;18.574;2023-04-20T13:01:47;102236.41;;;16.49;44.45